sensor_id;sensor_type;location;lat;lon;timestamp;temperature;humidity
7216;DHT22;3649;48.798;9.798;2023-06-24T00:00:11;22.80;99.90
7216;DHT22;3649;48.798;9.798;2023-06-24T00:02:38;22.70;99.90
7216;DHT22;3649;48.798;9.798;2023-06-24T00:05:08;22.70;99.90
7216;DHT22;3649;48.798;9.798;2023-06-24T00:07:35;22.70;99.90
7216;DHT22;3649;48.798;9.798;2023-06-24T00:10:13;21.60;99.90
7216;DHT22;3649;48.798;9.798;2023-06-24T00:12:41;22.60;99.90
7216;DHT22;3649;48.798;9.798;2023-06-24T00:15:09;22.50;99.90
7216;DHT22;3649;48.798;9.798;2023-06-24T00:17:36;22.50;99.90
7216;DHT22;3649;48.798;9.798;2023-06-24T00:20:03;22.50;99.90
7216;DHT22;3649;48.798;9.798;2023-06-24T00:22:32;22.50;99.90
7216;DHT22;3649;48.798;9.798;2023-06-24T00:24:58;22.50;99.90
7216;DHT22;3649;48.798;9.798;2023-06-24T00:27:27;22.50;99.90
7216;DHT22;3649;48.798;9.798;2023-06-24T00:29:53;22.50;99.90
7216;DHT22;3649;48.798;9.798;2023-06-24T00:32:20;22.50;99.90
7216;DHT22;3649;48.798;9.798;2023-06-24T00:34:47;22.50;99.90
7216;DHT22;3649;48.798;9.798;2023-06-24T00:37:14;22.50;99.90
7216;DHT22;3649;48.798;9.798;2023-06-24T00:39:41;22.50;99.90
7216;DHT22;3649;48.798;9.798;2023-06-24T00:42:08;22.50;99.90
7216;DHT22;3649;48.798;9.798;2023-06-24T00:44:35;22.50;99.90
7216;DHT22;3649;48.798;9.798;2023-06-24T00:47:04;22.60;99.90
7216;DHT22;3649;48.798;9.798;2023-06-24T00:49:31;22.50;99.90
7216;DHT22;3649;48.798;9.798;2023-06-24T00:51:58;22.60;99.90
7216;DHT22;3649;48.798;9.798;2023-06-24T00:54:27;22.60;99.90
7216;DHT22;3649;48.798;9.798;2023-06-24T00:56:58;22.60;99.90
7216;DHT22;3649;48.798;9.798;2023-06-24T00:59:27;22.50;99.90
7216;DHT22;3649;48.798;9.798;2023-06-24T01:01:59;22.50;99.90
7216;DHT22;3649;48.798;9.798;2023-06-24T01:04:31;22.50;99.90
7216;DHT22;3649;48.798;9.798;2023-06-24T01:07:00;22.50;99.90
7216;DHT22;3649;48.798;9.798;2023-06-24T01:09:28;22.50;99.90
7216;DHT22;3649;48.798;9.798;2023-06-24T01:11:55;22.50;99.90
7216;DHT22;3649;48.798;9.798;2023-06-24T01:14:22;22.40;99.90
7216;DHT22;3649;48.798;9.798;2023-06-24T01:16:56;22.40;99.90
7216;DHT22;3649;48.798;9.798;2023-06-24T01:33:39;22.40;99.90
7216;DHT22;3649;48.798;9.798;2023-06-24T01:36:11;22.30;99.90
7216;DHT22;3649;48.798;9.798;2023-06-24T01:38:51;22.20;99.90
7216;DHT22;3649;48.798;9.798;2023-06-24T01:41:22;22.20;99.90
7216;DHT22;3649;48.798;9.798;2023-06-24T01:43:54;22.20;99.90
7216;DHT22;3649;48.798;9.798;2023-06-24T01:46:25;22.20;99.90
7216;DHT22;3649;48.798;9.798;2023-06-24T01:48:59;22.20;99.90
7216;DHT22;3649;48.798;9.798;2023-06-24T01:51:31;22.20;99.90
7216;DHT22;3649;48.798;9.798;2023-06-24T01:54:03;22.10;99.90
7216;DHT22;3649;48.798;9.798;2023-06-24T01:56:32;22.10;99.90
7216;DHT22;3649;48.798;9.798;2023-06-24T01:59:02;22.00;99.90
7216;DHT22;3649;48.798;9.798;2023-06-24T02:01:32;21.90;99.90
7216;DHT22;3649;48.798;9.798;2023-06-24T02:04:01;21.90;99.90
7216;DHT22;3649;48.798;9.798;2023-06-24T02:06:30;21.80;99.90
7216;DHT22;3649;48.798;9.798;2023-06-24T02:08:59;21.80;99.90
7216;DHT22;3649;48.798;9.798;2023-06-24T02:11:28;21.80;99.90
7216;DHT22;3649;48.798;9.798;2023-06-24T02:13:59;21.80;99.90
7216;DHT22;3649;48.798;9.798;2023-06-24T02:16:27;21.70;99.90
7216;DHT22;3649;48.798;9.798;2023-06-24T02:18:56;21.70;99.90
7216;DHT22;3649;48.798;9.798;2023-06-24T02:21:24;21.70;99.90
7216;DHT22;3649;48.798;9.798;2023-06-24T02:23:52;21.70;99.90
7216;DHT22;3649;48.798;9.798;2023-06-24T02:26:20;21.70;99.90
7216;DHT22;3649;48.798;9.798;2023-06-24T02:28:47;21.60;99.90
7216;DHT22;3649;48.798;9.798;2023-06-24T02:31:15;21.70;99.90
7216;DHT22;3649;48.798;9.798;2023-06-24T02:33:42;21.60;99.90
7216;DHT22;3649;48.798;9.798;2023-06-24T02:36:09;21.60;99.90
7216;DHT22;3649;48.798;9.798;2023-06-24T02:38:38;21.60;99.90
7216;DHT22;3649;48.798;9.798;2023-06-24T02:41:05;21.60;99.90
7216;DHT22;3649;48.798;9.798;2023-06-24T02:43:32;21.60;99.90
7216;DHT22;3649;48.798;9.798;2023-06-24T02:46:01;21.60;99.90
7216;DHT22;3649;48.798;9.798;2023-06-24T02:48:29;21.60;99.90
7216;DHT22;3649;48.798;9.798;2023-06-24T02:50:58;21.60;99.90
7216;DHT22;3649;48.798;9.798;2023-06-24T02:53:26;21.50;99.90
7216;DHT22;3649;48.798;9.798;2023-06-24T02:55:55;21.50;99.90
7216;DHT22;3649;48.798;9.798;2023-06-24T02:58:24;21.50;99.90
7216;DHT22;3649;48.798;9.798;2023-06-24T03:00:59;21.50;99.90
7216;DHT22;3649;48.798;9.798;2023-06-24T03:03:27;21.40;99.90
7216;DHT22;3649;48.798;9.798;2023-06-24T03:05:55;21.30;99.90
7216;DHT22;3649;48.798;9.798;2023-06-24T03:08:25;21.20;99.90
7216;DHT22;3649;48.798;9.798;2023-06-24T03:10:54;21.10;99.90
7216;DHT22;3649;48.798;9.798;2023-06-24T03:13:22;21.10;99.90
7216;DHT22;3649;48.798;9.798;2023-06-24T03:15:50;21.00;99.90
7216;DHT22;3649;48.798;9.798;2023-06-24T03:18:17;21.00;99.90
7216;DHT22;3649;48.798;9.798;2023-06-24T03:20:44;21.00;99.90
7216;DHT22;3649;48.798;9.798;2023-06-24T03:23:12;20.90;99.90
7216;DHT22;3649;48.798;9.798;2023-06-24T03:25:39;20.80;99.90
7216;DHT22;3649;48.798;9.798;2023-06-24T03:28:06;20.80;99.90
7216;DHT22;3649;48.798;9.798;2023-06-24T03:30:34;20.80;99.90
7216;DHT22;3649;48.798;9.798;2023-06-24T03:33:01;20.80;99.90
7216;DHT22;3649;48.798;9.798;2023-06-24T03:35:28;20.80;99.90
7216;DHT22;3649;48.798;9.798;2023-06-24T03:37:56;20.80;99.90
7216;DHT22;3649;48.798;9.798;2023-06-24T03:40:23;20.80;99.90
7216;DHT22;3649;48.798;9.798;2023-06-24T03:42:50;20.70;99.90
7216;DHT22;3649;48.798;9.798;2023-06-24T03:45:17;20.80;99.90
7216;DHT22;3649;48.798;9.798;2023-06-24T03:47:43;20.70;99.90
7216;DHT22;3649;48.798;9.798;2023-06-24T03:50:10;20.70;99.90
7216;DHT22;3649;48.798;9.798;2023-06-24T03:52:37;20.70;99.90
7216;DHT22;3649;48.798;9.798;2023-06-24T03:55:04;20.70;99.90
7216;DHT22;3649;48.798;9.798;2023-06-24T03:57:32;20.60;99.90
7216;DHT22;3649;48.798;9.798;2023-06-24T03:59:58;20.50;99.90
7216;DHT22;3649;48.798;9.798;2023-06-24T04:02:25;20.60;99.90
7216;DHT22;3649;48.798;9.798;2023-06-24T04:04:53;20.60;99.90
7216;DHT22;3649;48.798;9.798;2023-06-24T04:07:22;20.50;99.90
7216;DHT22;3649;48.798;9.798;2023-06-24T04:09:55;20.50;99.90
7216;DHT22;3649;48.798;9.798;2023-06-24T04:12:23;20.40;99.90
7216;DHT22;3649;48.798;9.798;2023-06-24T04:14:50;20.40;99.90
7216;DHT22;3649;48.798;9.798;2023-06-24T04:17:19;20.50;99.90
7216;DHT22;3649;48.798;9.798;2023-06-24T04:19:55;20.50;99.90
7216;DHT22;3649;48.798;9.798;2023-06-24T04:22:33;20.60;99.90
7216;DHT22;3649;48.798;9.798;2023-06-24T04:25:11;20.60;99.90
7216;DHT22;3649;48.798;9.798;2023-06-24T04:27:41;20.60;99.90
7216;DHT22;3649;48.798;9.798;2023-06-24T04:30:09;20.50;99.90
7216;DHT22;3649;48.798;9.798;2023-06-24T04:32:36;20.50;99.90
7216;DHT22;3649;48.798;9.798;2023-06-24T04:35:03;20.50;99.90
7216;DHT22;3649;48.798;9.798;2023-06-24T04:37:31;20.50;99.90
7216;DHT22;3649;48.798;9.798;2023-06-24T04:39:58;20.60;99.90
7216;DHT22;3649;48.798;9.798;2023-06-24T04:42:25;20.70;99.90
7216;DHT22;3649;48.798;9.798;2023-06-24T04:44:52;20.70;99.90
7216;DHT22;3649;48.798;9.798;2023-06-24T04:47:18;20.70;99.90
7216;DHT22;3649;48.798;9.798;2023-06-24T04:49:45;20.60;99.90
7216;DHT22;3649;48.798;9.798;2023-06-24T04:52:12;20.60;99.90
7216;DHT22;3649;48.798;9.798;2023-06-24T04:54:40;20.60;99.90
7216;DHT22;3649;48.798;9.798;2023-06-24T04:57:09;20.60;99.90
7216;DHT22;3649;48.798;9.798;2023-06-24T04:59:36;20.60;99.90
7216;DHT22;3649;48.798;9.798;2023-06-24T05:02:04;20.60;99.90
7216;DHT22;3649;48.798;9.798;2023-06-24T05:04:31;20.70;99.90
7216;DHT22;3649;48.798;9.798;2023-06-24T05:06:58;20.90;99.90
7216;DHT22;3649;48.798;9.798;2023-06-24T05:09:25;21.00;99.90
7216;DHT22;3649;48.798;9.798;2023-06-24T05:11:52;21.10;99.90
7216;DHT22;3649;48.798;9.798;2023-06-24T05:14:19;21.20;99.90
7216;DHT22;3649;48.798;9.798;2023-06-24T05:16:46;21.30;99.90
7216;DHT22;3649;48.798;9.798;2023-06-24T05:19:13;21.30;99.90
7216;DHT22;3649;48.798;9.798;2023-06-24T05:21:40;21.30;99.90
7216;DHT22;3649;48.798;9.798;2023-06-24T05:24:07;21.30;99.90
7216;DHT22;3649;48.798;9.798;2023-06-24T05:26:33;21.40;99.90
7216;DHT22;3649;48.798;9.798;2023-06-24T05:29:00;21.50;99.90
7216;DHT22;3649;48.798;9.798;2023-06-24T05:31:27;21.60;99.90
7216;DHT22;3649;48.798;9.798;2023-06-24T05:33:54;21.70;99.90
7216;DHT22;3649;48.798;9.798;2023-06-24T05:36:21;21.70;99.90
7216;DHT22;3649;48.798;9.798;2023-06-24T05:38:48;21.70;99.90
7216;DHT22;3649;48.798;9.798;2023-06-24T05:41:15;21.80;99.90
7216;DHT22;3649;48.798;9.798;2023-06-24T05:43:45;21.90;99.90
7216;DHT22;3649;48.798;9.798;2023-06-24T05:46:12;21.90;99.90
7216;DHT22;3649;48.798;9.798;2023-06-24T05:48:39;22.00;99.90
7216;DHT22;3649;48.798;9.798;2023-06-24T05:51:06;21.90;99.90
7216;DHT22;3649;48.798;9.798;2023-06-24T05:53:33;21.90;99.90
7216;DHT22;3649;48.798;9.798;2023-06-24T05:56:00;22.00;99.90
7216;DHT22;3649;48.798;9.798;2023-06-24T05:58:27;22.00;99.90
7216;DHT22;3649;48.798;9.798;2023-06-24T06:00:53;22.00;99.90
7216;DHT22;3649;48.798;9.798;2023-06-24T06:03:22;22.10;99.90
7216;DHT22;3649;48.798;9.798;2023-06-24T06:05:48;22.20;99.90
7216;DHT22;3649;48.798;9.798;2023-06-24T06:08:16;22.20;99.90
7216;DHT22;3649;48.798;9.798;2023-06-24T06:10:42;22.20;99.90
7216;DHT22;3649;48.798;9.798;2023-06-24T06:13:09;22.20;99.90
7216;DHT22;3649;48.798;9.798;2023-06-24T06:15:36;22.40;99.90
7216;DHT22;3649;48.798;9.798;2023-06-24T06:18:03;22.50;99.90
7216;DHT22;3649;48.798;9.798;2023-06-24T06:20:30;22.60;99.90
7216;DHT22;3649;48.798;9.798;2023-06-24T06:22:57;22.60;99.90
7216;DHT22;3649;48.798;9.798;2023-06-24T06:25:24;22.80;99.90
7216;DHT22;3649;48.798;9.798;2023-06-24T06:27:51;22.80;99.90
7216;DHT22;3649;48.798;9.798;2023-06-24T06:30:18;22.90;99.90
7216;DHT22;3649;48.798;9.798;2023-06-24T06:32:45;22.90;99.90
7216;DHT22;3649;48.798;9.798;2023-06-24T06:35:13;23.00;99.90
7216;DHT22;3649;48.798;9.798;2023-06-24T06:37:40;23.10;99.90
7216;DHT22;3649;48.798;9.798;2023-06-24T06:40:07;23.20;99.90
7216;DHT22;3649;48.798;9.798;2023-06-24T06:42:35;23.30;99.90
7216;DHT22;3649;48.798;9.798;2023-06-24T06:45:02;23.40;99.90
7216;DHT22;3649;48.798;9.798;2023-06-24T06:47:29;23.60;99.90
7216;DHT22;3649;48.798;9.798;2023-06-24T06:49:56;23.80;99.70
7216;DHT22;3649;48.798;9.798;2023-06-24T06:52:23;24.00;99.50
7216;DHT22;3649;48.798;9.798;2023-06-24T06:54:50;24.20;99.40
7216;DHT22;3649;48.798;9.798;2023-06-24T06:57:17;24.40;99.10
7216;DHT22;3649;48.798;9.798;2023-06-24T06:59:44;24.60;98.80
7216;DHT22;3649;48.798;9.798;2023-06-24T07:02:11;24.90;98.40
7216;DHT22;3649;48.798;9.798;2023-06-24T07:04:38;25.00;98.20
7216;DHT22;3649;48.798;9.798;2023-06-24T07:07:05;25.20;97.80
7216;DHT22;3649;48.798;9.798;2023-06-24T07:09:32;25.40;97.50
7216;DHT22;3649;48.798;9.798;2023-06-24T07:11:59;25.50;97.30
7216;DHT22;3649;48.798;9.798;2023-06-24T07:14:26;25.60;97.30
7216;DHT22;3649;48.798;9.798;2023-06-24T07:16:52;25.70;97.20
7216;DHT22;3649;48.798;9.798;2023-06-24T07:19:19;25.80;97.10
7216;DHT22;3649;48.798;9.798;2023-06-24T07:21:46;26.00;97.00
7216;DHT22;3649;48.798;9.798;2023-06-24T07:24:13;26.00;96.80
7216;DHT22;3649;48.798;9.798;2023-06-24T07:26:40;26.10;96.90
7216;DHT22;3649;48.798;9.798;2023-06-24T07:29:07;26.20;96.80
7216;DHT22;3649;48.798;9.798;2023-06-24T07:31:36;26.20;96.70
7216;DHT22;3649;48.798;9.798;2023-06-24T07:34:04;26.40;96.60
7216;DHT22;3649;48.798;9.798;2023-06-24T07:36:32;26.40;96.30
7216;DHT22;3649;48.798;9.798;2023-06-24T07:38:59;26.50;96.20
7216;DHT22;3649;48.798;9.798;2023-06-24T07:41:26;26.50;96.30
7216;DHT22;3649;48.798;9.798;2023-06-24T07:43:52;26.60;96.10
7216;DHT22;3649;48.798;9.798;2023-06-24T07:46:20;26.60;95.90
7216;DHT22;3649;48.798;9.798;2023-06-24T07:48:47;26.60;95.80
7216;DHT22;3649;48.798;9.798;2023-06-24T07:51:14;26.70;95.80
7216;DHT22;3649;48.798;9.798;2023-06-24T07:53:41;26.70;95.40
7216;DHT22;3649;48.798;9.798;2023-06-24T07:56:07;26.70;95.40
7216;DHT22;3649;48.798;9.798;2023-06-24T07:58:35;26.80;95.20
7216;DHT22;3649;48.798;9.798;2023-06-24T08:01:04;26.90;95.20
7216;DHT22;3649;48.798;9.798;2023-06-24T08:03:31;26.90;95.10
7216;DHT22;3649;48.798;9.798;2023-06-24T08:05:58;27.00;95.20
7216;DHT22;3649;48.798;9.798;2023-06-24T08:08:25;27.10;95.00
7216;DHT22;3649;48.798;9.798;2023-06-24T08:10:51;27.10;94.90
7216;DHT22;3649;48.798;9.798;2023-06-24T08:13:18;27.10;94.80
7216;DHT22;3649;48.798;9.798;2023-06-24T08:15:45;27.10;94.60
7216;DHT22;3649;48.798;9.798;2023-06-24T08:18:12;27.10;94.60
7216;DHT22;3649;48.798;9.798;2023-06-24T08:20:39;27.10;94.80
7216;DHT22;3649;48.798;9.798;2023-06-24T08:23:06;27.20;94.70
7216;DHT22;3649;48.798;9.798;2023-06-24T08:25:33;27.20;94.60
7216;DHT22;3649;48.798;9.798;2023-06-24T08:28:00;28.80;95.00
7216;DHT22;3649;48.798;9.798;2023-06-24T08:30:27;27.30;94.30
7216;DHT22;3649;48.798;9.798;2023-06-24T08:32:56;27.30;94.30
7216;DHT22;3649;48.798;9.798;2023-06-24T08:35:23;27.30;94.20
7216;DHT22;3649;48.798;9.798;2023-06-24T08:37:49;27.30;94.50
7216;DHT22;3649;48.798;9.798;2023-06-24T08:40:17;27.30;94.40
7216;DHT22;3649;48.798;9.798;2023-06-24T08:42:44;27.30;94.30
7216;DHT22;3649;48.798;9.798;2023-06-24T08:45:11;27.30;94.10
7216;DHT22;3649;48.798;9.798;2023-06-24T08:47:39;27.30;94.20
7216;DHT22;3649;48.798;9.798;2023-06-24T08:50:12;27.30;94.20
7216;DHT22;3649;48.798;9.798;2023-06-24T08:52:47;27.30;94.20
7216;DHT22;3649;48.798;9.798;2023-06-24T08:55:17;27.30;94.20
7216;DHT22;3649;48.798;9.798;2023-06-24T08:57:44;27.30;93.90
7216;DHT22;3649;48.798;9.798;2023-06-24T09:00:11;27.30;94.20
7216;DHT22;3649;48.798;9.798;2023-06-24T09:02:38;27.30;94.10
7216;DHT22;3649;48.798;9.798;2023-06-24T09:05:06;27.30;93.70
7216;DHT22;3649;48.798;9.798;2023-06-24T09:07:34;27.30;93.60
7216;DHT22;3649;48.798;9.798;2023-06-24T09:10:01;27.40;94.10
7216;DHT22;3649;48.798;9.798;2023-06-24T09:12:28;27.40;93.80
7216;DHT22;3649;48.798;9.798;2023-06-24T09:14:58;27.40;93.70
7216;DHT22;3649;48.798;9.798;2023-06-24T09:17:25;27.30;93.50
7216;DHT22;3649;48.798;9.798;2023-06-24T09:20:03;27.10;93.50
7216;DHT22;3649;48.798;9.798;2023-06-24T09:22:31;27.10;93.60
7216;DHT22;3649;48.798;9.798;2023-06-24T09:25:01;27.00;94.00
7216;DHT22;3649;48.798;9.798;2023-06-24T09:27:31;27.00;93.90
7216;DHT22;3649;48.798;9.798;2023-06-24T09:29:59;27.00;93.80
7216;DHT22;3649;48.798;9.798;2023-06-24T09:32:29;27.00;93.50
7216;DHT22;3649;48.798;9.798;2023-06-24T09:34:57;27.00;93.60
7216;DHT22;3649;48.798;9.798;2023-06-24T09:37:28;27.00;93.20
7216;DHT22;3649;48.798;9.798;2023-06-24T09:39:58;26.90;93.30
7216;DHT22;3649;48.798;9.798;2023-06-24T09:42:24;26.90;93.40
7216;DHT22;3649;48.798;9.798;2023-06-24T09:44:55;26.80;93.10
7216;DHT22;3649;48.798;9.798;2023-06-24T09:47:22;26.70;92.80
7216;DHT22;3649;48.798;9.798;2023-06-24T09:49:55;26.70;92.80
7216;DHT22;3649;48.798;9.798;2023-06-24T09:52:22;26.70;93.00
7216;DHT22;3649;48.798;9.798;2023-06-24T09:54:51;26.70;92.80
7216;DHT22;3649;48.798;9.798;2023-06-24T09:57:26;26.70;92.80
7216;DHT22;3649;48.798;9.798;2023-06-24T09:59:54;26.70;92.50
7216;DHT22;3649;48.798;9.798;2023-06-24T10:02:21;26.70;92.60
7216;DHT22;3649;48.798;9.798;2023-06-24T10:04:49;26.80;92.70
7216;DHT22;3649;48.798;9.798;2023-06-24T10:07:19;26.90;92.80
7216;DHT22;3649;48.798;9.798;2023-06-24T10:09:46;26.90;92.70
7216;DHT22;3649;48.798;9.798;2023-06-24T10:12:13;26.90;92.50
7216;DHT22;3649;48.798;9.798;2023-06-24T10:14:40;27.00;92.10
7216;DHT22;3649;48.798;9.798;2023-06-24T10:17:07;27.10;92.10
7216;DHT22;3649;48.798;9.798;2023-06-24T10:19:41;27.10;92.50
7216;DHT22;3649;48.798;9.798;2023-06-24T10:22:09;27.10;92.00
7216;DHT22;3649;48.798;9.798;2023-06-24T10:24:41;27.00;92.10
7216;DHT22;3649;48.798;9.798;2023-06-24T10:27:17;27.10;91.90
7216;DHT22;3649;48.798;9.798;2023-06-24T10:29:46;27.10;92.30
7216;DHT22;3649;48.798;9.798;2023-06-24T10:32:13;27.10;92.50
7216;DHT22;3649;48.798;9.798;2023-06-24T10:34:42;27.10;92.10
7216;DHT22;3649;48.798;9.798;2023-06-24T10:45:17;27.10;91.20
7216;DHT22;3649;48.798;9.798;2023-06-24T10:47:51;27.10;91.20
7216;DHT22;3649;48.798;9.798;2023-06-24T10:50:23;27.10;91.40
7216;DHT22;3649;48.798;9.798;2023-06-24T10:52:52;27.00;91.80
7216;DHT22;3649;48.798;9.798;2023-06-24T10:55:24;26.90;91.50
7216;DHT22;3649;48.798;9.798;2023-06-24T10:57:54;26.80;91.40
7216;DHT22;3649;48.798;9.798;2023-06-24T11:00:21;26.80;91.50
7216;DHT22;3649;48.798;9.798;2023-06-24T11:02:49;26.80;92.00
7216;DHT22;3649;48.798;9.798;2023-06-24T11:05:16;26.80;92.50
7216;DHT22;3649;48.798;9.798;2023-06-24T11:07:43;26.80;91.90
7216;DHT22;3649;48.798;9.798;2023-06-24T11:10:14;26.80;91.70
7216;DHT22;3649;48.798;9.798;2023-06-24T11:12:42;26.80;91.90
7216;DHT22;3649;48.798;9.798;2023-06-24T11:15:11;26.70;91.50
7216;DHT22;3649;48.798;9.798;2023-06-24T11:17:39;26.70;91.20
7216;DHT22;3649;48.798;9.798;2023-06-24T11:20:11;26.80;91.10
7216;DHT22;3649;48.798;9.798;2023-06-24T11:22:40;26.90;91.10
7216;DHT22;3649;48.798;9.798;2023-06-24T11:25:18;26.90;91.00
7216;DHT22;3649;48.798;9.798;2023-06-24T11:27:45;26.90;90.60
7216;DHT22;3649;48.798;9.798;2023-06-24T11:30:13;26.90;91.00
7216;DHT22;3649;48.798;9.798;2023-06-24T11:32:41;26.90;91.40
7216;DHT22;3649;48.798;9.798;2023-06-24T11:35:10;26.90;91.40
7216;DHT22;3649;48.798;9.798;2023-06-24T11:37:37;26.90;91.30
7216;DHT22;3649;48.798;9.798;2023-06-24T11:40:08;26.90;90.70
7216;DHT22;3649;48.798;9.798;2023-06-24T11:45:07;26.90;91.10
7216;DHT22;3649;48.798;9.798;2023-06-24T11:47:35;27.00;91.40
7216;DHT22;3649;48.798;9.798;2023-06-24T11:50:03;26.90;91.20
7216;DHT22;3649;48.798;9.798;2023-06-24T11:52:49;26.90;90.80
7216;DHT22;3649;48.798;9.798;2023-06-24T11:55:20;27.00;90.00
7216;DHT22;3649;48.798;9.798;2023-06-24T12:00:30;26.80;90.90
7216;DHT22;3649;48.798;9.798;2023-06-24T12:03:07;26.90;90.00
7216;DHT22;3649;48.798;9.798;2023-06-24T12:05:38;26.90;89.20
7216;DHT22;3649;48.798;9.798;2023-06-24T12:08:09;27.00;90.30
7216;DHT22;3649;48.798;9.798;2023-06-24T12:10:37;27.00;90.50
7216;DHT22;3649;48.798;9.798;2023-06-24T12:13:05;27.00;90.70
7216;DHT22;3649;48.798;9.798;2023-06-24T12:15:35;26.90;90.00
7216;DHT22;3649;48.798;9.798;2023-06-24T12:18:05;26.90;89.20
7216;DHT22;3649;48.798;9.798;2023-06-24T12:20:32;26.90;89.20
7216;DHT22;3649;48.798;9.798;2023-06-24T12:23:04;26.90;89.20
7216;DHT22;3649;48.798;9.798;2023-06-24T12:25:31;27.00;89.50
7216;DHT22;3649;48.798;9.798;2023-06-24T12:27:58;27.00;89.00
7216;DHT22;3649;48.798;9.798;2023-06-24T12:30:28;27.00;88.10
7216;DHT22;3649;48.798;9.798;2023-06-24T12:32:56;27.00;87.40
7216;DHT22;3649;48.798;9.798;2023-06-24T12:35:23;27.00;88.20
7216;DHT22;3649;48.798;9.798;2023-06-24T12:37:53;27.00;89.10
7216;DHT22;3649;48.798;9.798;2023-06-24T12:40:20;27.00;90.00
7216;DHT22;3649;48.798;9.798;2023-06-24T12:42:47;27.00;89.70
7216;DHT22;3649;48.798;9.798;2023-06-24T12:45:14;27.00;87.60
7216;DHT22;3649;48.798;9.798;2023-06-24T12:47:41;27.00;87.30
7216;DHT22;3649;48.798;9.798;2023-06-24T12:50:08;27.00;88.30
7216;DHT22;3649;48.798;9.798;2023-06-24T12:52:36;27.10;88.90
7216;DHT22;3649;48.798;9.798;2023-06-24T12:55:05;27.20;88.40
7216;DHT22;3649;48.798;9.798;2023-06-24T12:57:34;27.20;88.30
7216;DHT22;3649;48.798;9.798;2023-06-24T13:00:02;27.20;88.10
7216;DHT22;3649;48.798;9.798;2023-06-24T13:02:33;27.20;87.70
7216;DHT22;3649;48.798;9.798;2023-06-24T13:05:00;27.20;87.90
7216;DHT22;3649;48.798;9.798;2023-06-24T13:07:27;27.30;88.60
7216;DHT22;3649;48.798;9.798;2023-06-24T13:09:54;27.30;89.40
7216;DHT22;3649;48.798;9.798;2023-06-24T13:12:20;27.30;89.30
7216;DHT22;3649;48.798;9.798;2023-06-24T13:14:48;27.30;90.00
7216;DHT22;3649;48.798;9.798;2023-06-24T13:17:15;27.30;89.70
7216;DHT22;3649;48.798;9.798;2023-06-24T13:19:42;27.30;90.00
7216;DHT22;3649;48.798;9.798;2023-06-24T13:22:09;27.30;89.60
7216;DHT22;3649;48.798;9.798;2023-06-24T13:24:36;27.20;89.20
7216;DHT22;3649;48.798;9.798;2023-06-24T13:27:03;27.20;89.90
7216;DHT22;3649;48.798;9.798;2023-06-24T13:29:29;27.20;88.20
7216;DHT22;3649;48.798;9.798;2023-06-24T13:31:57;27.30;88.10
7216;DHT22;3649;48.798;9.798;2023-06-24T13:34:23;27.40;87.90
7216;DHT22;3649;48.798;9.798;2023-06-24T13:36:51;27.50;87.70
7216;DHT22;3649;48.798;9.798;2023-06-24T13:39:17;27.50;86.60
7216;DHT22;3649;48.798;9.798;2023-06-24T13:41:45;27.60;87.10
7216;DHT22;3649;48.798;9.798;2023-06-24T13:44:12;27.70;86.30
7216;DHT22;3649;48.798;9.798;2023-06-24T13:46:39;27.90;86.70
7216;DHT22;3649;48.798;9.798;2023-06-24T13:49:06;27.90;87.00
7216;DHT22;3649;48.798;9.798;2023-06-24T13:51:33;28.00;86.70
7216;DHT22;3649;48.798;9.798;2023-06-24T13:54:00;28.00;86.60
7216;DHT22;3649;48.798;9.798;2023-06-24T13:56:27;28.00;86.50
7216;DHT22;3649;48.798;9.798;2023-06-24T13:58:54;27.90;86.10
7216;DHT22;3649;48.798;9.798;2023-06-24T14:01:22;27.90;86.60
7216;DHT22;3649;48.798;9.798;2023-06-24T14:03:50;27.90;86.40
7216;DHT22;3649;48.798;9.798;2023-06-24T14:06:19;27.90;86.30
7216;DHT22;3649;48.798;9.798;2023-06-24T14:08:46;27.90;85.90
7216;DHT22;3649;48.798;9.798;2023-06-24T14:11:13;27.90;86.40
7216;DHT22;3649;48.798;9.798;2023-06-24T14:13:41;27.90;86.40
7216;DHT22;3649;48.798;9.798;2023-06-24T14:16:09;28.00;86.40
7216;DHT22;3649;48.798;9.798;2023-06-24T14:18:37;27.90;86.30
7216;DHT22;3649;48.798;9.798;2023-06-24T14:21:06;27.90;86.00
7216;DHT22;3649;48.798;9.798;2023-06-24T14:23:33;27.90;86.10
7216;DHT22;3649;48.798;9.798;2023-06-24T14:26:00;28.00;86.70
7216;DHT22;3649;48.798;9.798;2023-06-24T14:28:27;27.90;86.50
7216;DHT22;3649;48.798;9.798;2023-06-24T14:30:54;27.90;85.60
7216;DHT22;3649;48.798;9.798;2023-06-24T14:33:21;27.80;85.50
7216;DHT22;3649;48.798;9.798;2023-06-24T14:35:48;27.80;85.50
7216;DHT22;3649;48.798;9.798;2023-06-24T14:38:15;27.80;85.80
7216;DHT22;3649;48.798;9.798;2023-06-24T14:40:41;27.70;86.60
7216;DHT22;3649;48.798;9.798;2023-06-24T14:43:08;27.60;86.40
7216;DHT22;3649;48.798;9.798;2023-06-24T14:45:36;27.60;86.60
7216;DHT22;3649;48.798;9.798;2023-06-24T14:48:03;27.60;86.80
7216;DHT22;3649;48.798;9.798;2023-06-24T14:50:30;27.50;86.50
7216;DHT22;3649;48.798;9.798;2023-06-24T14:52:57;27.60;86.50
7216;DHT22;3649;48.798;9.798;2023-06-24T14:55:24;27.70;86.30
7216;DHT22;3649;48.798;9.798;2023-06-24T14:57:50;27.70;87.20
7216;DHT22;3649;48.798;9.798;2023-06-24T15:00:17;27.70;87.30
7216;DHT22;3649;48.798;9.798;2023-06-24T15:02:44;27.60;85.40
7216;DHT22;3649;48.798;9.798;2023-06-24T15:05:11;27.70;85.40
7216;DHT22;3649;48.798;9.798;2023-06-24T15:07:38;27.70;85.90
7216;DHT22;3649;48.798;9.798;2023-06-24T15:10:06;27.70;86.20
7216;DHT22;3649;48.798;9.798;2023-06-24T15:12:33;27.70;85.70
7216;DHT22;3649;48.798;9.798;2023-06-24T15:15:01;27.80;85.10
7216;DHT22;3649;48.798;9.798;2023-06-24T15:17:28;27.80;84.90
7216;DHT22;3649;48.798;9.798;2023-06-24T15:19:56;27.80;85.50
7216;DHT22;3649;48.798;9.798;2023-06-24T15:22:23;27.80;85.80
7216;DHT22;3649;48.798;9.798;2023-06-24T15:24:50;27.90;84.00
7216;DHT22;3649;48.798;9.798;2023-06-24T15:27:18;28.10;85.10
7216;DHT22;3649;48.798;9.798;2023-06-24T15:29:45;28.20;86.50
7216;DHT22;3649;48.798;9.798;2023-06-24T15:32:11;28.20;87.30
7216;DHT22;3649;48.798;9.798;2023-06-24T15:34:38;28.10;86.90
7216;DHT22;3649;48.798;9.798;2023-06-24T15:37:06;28.00;87.60
7216;DHT22;3649;48.798;9.798;2023-06-24T15:39:33;27.90;87.90
7216;DHT22;3649;48.798;9.798;2023-06-24T15:42:00;28.00;86.10
7216;DHT22;3649;48.798;9.798;2023-06-24T15:44:27;27.90;84.60
7216;DHT22;3649;48.798;9.798;2023-06-24T15:46:54;27.90;85.40
7216;DHT22;3649;48.798;9.798;2023-06-24T15:49:21;27.90;84.70
7216;DHT22;3649;48.798;9.798;2023-06-24T15:51:48;27.90;85.60
7216;DHT22;3649;48.798;9.798;2023-06-24T15:54:15;27.90;84.20
7216;DHT22;3649;48.798;9.798;2023-06-24T15:56:42;27.90;84.00
7216;DHT22;3649;48.798;9.798;2023-06-24T15:59:09;28.00;84.10
7216;DHT22;3649;48.798;9.798;2023-06-24T16:01:36;27.90;84.30
7216;DHT22;3649;48.798;9.798;2023-06-24T16:04:04;27.90;85.00
7216;DHT22;3649;48.798;9.798;2023-06-24T16:06:31;27.90;84.80
7216;DHT22;3649;48.798;9.798;2023-06-24T16:08:58;27.90;84.50
7216;DHT22;3649;48.798;9.798;2023-06-24T16:11:25;27.90;84.60
7216;DHT22;3649;48.798;9.798;2023-06-24T16:13:51;27.90;84.90
7216;DHT22;3649;48.798;9.798;2023-06-24T16:16:18;27.90;86.10
7216;DHT22;3649;48.798;9.798;2023-06-24T16:18:45;27.80;85.10
7216;DHT22;3649;48.798;9.798;2023-06-24T16:21:12;27.80;85.90
7216;DHT22;3649;48.798;9.798;2023-06-24T16:23:39;27.80;85.50
7216;DHT22;3649;48.798;9.798;2023-06-24T16:26:05;27.80;85.40
7216;DHT22;3649;48.798;9.798;2023-06-24T16:28:32;27.80;85.90
7216;DHT22;3649;48.798;9.798;2023-06-24T16:30:59;27.80;85.30
7216;DHT22;3649;48.798;9.798;2023-06-24T16:33:26;27.70;85.40